createdAt,value
2024-02-29T00:02:18.127Z,51.70
2024-02-29T00:04:45.249Z,51.04
2024-02-29T00:07:12.307Z,51.86
2024-02-29T00:09:39.366Z,51.74
2024-02-29T00:12:07.021Z,51.98
2024-02-29T00:14:33.911Z,51.53
2024-02-29T00:17:00.914Z,52.26
2024-02-29T00:19:28.460Z,51.75
2024-02-29T00:21:55.509Z,51.41
2024-02-29T00:24:22.511Z,51.71
2024-02-29T00:26:49.586Z,52.07
2024-02-29T00:29:16.565Z,52.23
2024-02-29T00:31:44.435Z,52.01
2024-02-29T00:34:13.385Z,52.20
2024-02-29T00:36:40.998Z,52.01
2024-02-29T00:39:12.215Z,51.64
2024-02-29T00:41:42.793Z,52.35
2024-02-29T00:44:10.829Z,52.04
2024-02-29T00:46:41.520Z,52.52
2024-02-29T00:49:08.969Z,51.61
2024-02-29T00:51:36.141Z,51.92
2024-02-29T00:54:03.158Z,51.58
2024-02-29T00:56:30.201Z,51.96
2024-02-29T00:58:57.185Z,52.12
2024-02-29T01:01:24.320Z,51.06
2024-02-29T01:03:51.408Z,52.13
2024-02-29T01:06:18.426Z,51.44
2024-02-29T01:08:45.634Z,51.40
2024-02-29T01:11:13.177Z,51.98
2024-02-29T01:13:40.174Z,51.40
2024-02-29T01:16:07.428Z,51.39
2024-02-29T01:18:34.687Z,52.12
2024-02-29T01:21:01.743Z,52.47
2024-02-29T01:23:28.735Z,52.14
2024-02-29T01:25:55.786Z,51.80
2024-02-29T01:28:22.767Z,52.13
2024-02-29T01:30:50.250Z,51.89
2024-02-29T01:33:17.283Z,51.89
2024-02-29T01:35:44.368Z,51.91
2024-02-29T01:38:11.324Z,51.77
2024-02-29T01:40:38.457Z,51.56
2024-02-29T01:43:05.567Z,52.11
2024-02-29T01:45:32.840Z,51.89
2024-02-29T01:48:00.037Z,52.01
2024-02-29T01:50:29.491Z,52.34
2024-02-29T01:52:56.523Z,52.35
2024-02-29T01:55:24.081Z,51.56
2024-02-29T01:57:51.071Z,52.08
2024-02-29T02:00:18.352Z,51.92
2024-02-29T02:02:45.883Z,51.42
2024-02-29T02:05:13.014Z,51.92
2024-02-29T02:07:39.922Z,51.24
2024-02-29T02:10:07.860Z,51.75
2024-02-29T02:12:35.310Z,51.10
2024-02-29T02:15:02.670Z,51.03
2024-02-29T02:17:29.994Z,50.80
2024-02-29T02:19:58.167Z,51.02
2024-02-29T02:22:25.766Z,51.41
2024-02-29T02:24:52.767Z,51.22
2024-02-29T02:27:19.773Z,50.73
2024-02-29T02:29:46.798Z,50.91
2024-02-29T02:32:13.771Z,51.02
2024-02-29T02:34:40.701Z,50.22
2024-02-29T02:37:07.785Z,50.70
2024-02-29T02:39:34.888Z,50.43
2024-02-29T02:42:02.349Z,50.85
2024-02-29T02:44:29.403Z,50.58
2024-02-29T02:46:56.366Z,50.75
2024-02-29T02:49:23.328Z,50.62
2024-02-29T02:51:50.283Z,50.17
2024-02-29T02:54:17.312Z,50.39
2024-02-29T02:56:44.328Z,50.63
2024-02-29T02:59:11.334Z,50.18
2024-02-29T03:01:38.373Z,50.27
2024-02-29T03:04:05.566Z,50.44
2024-02-29T03:06:32.850Z,50.33
2024-02-29T03:08:59.890Z,50.79
2024-02-29T03:11:26.958Z,50.48
2024-02-29T03:13:53.972Z,50.92
2024-02-29T03:16:24.340Z,50.76
2024-02-29T03:18:51.371Z,50.25
2024-02-29T03:21:18.573Z,50.97
2024-02-29T03:23:45.966Z,50.40
2024-02-29T03:26:13.170Z,50.54
2024-02-29T03:28:40.835Z,50.03
2024-02-29T03:31:11.809Z,50.16
2024-02-29T03:33:38.814Z,49.79
2024-02-29T03:36:05.946Z,50.51
2024-02-29T03:38:32.959Z,50.53
2024-02-29T03:40:59.882Z,50.91
2024-02-29T03:43:26.832Z,50.14
2024-02-29T03:45:53.924Z,50.23
2024-02-29T03:48:21.016Z,50.28
2024-02-29T03:50:47.972Z,49.77
2024-02-29T03:53:15.008Z,50.03
2024-02-29T03:55:41.943Z,50.12
2024-02-29T03:58:08.986Z,49.97
2024-02-29T04:00:36.224Z,50.22
2024-02-29T04:03:03.328Z,50.31
2024-02-29T04:05:30.381Z,50.24
2024-02-29T04:07:57.454Z,49.41
2024-02-29T04:10:24.489Z,49.65
2024-02-29T04:12:51.460Z,49.41
2024-02-29T04:15:18.550Z,49.17
2024-02-29T04:17:45.575Z,49.36
2024-02-29T04:20:12.795Z,49.32
2024-02-29T04:22:41.142Z,49.78
2024-02-29T04:25:08.926Z,49.69
2024-02-29T04:27:35.978Z,49.23
2024-02-29T04:30:03.084Z,49.56
2024-02-29T04:32:30.092Z,49.44
2024-02-29T04:34:57.067Z,48.74
2024-02-29T04:37:24.446Z,48.41
2024-02-29T04:39:51.428Z,48.92
2024-02-29T04:42:18.385Z,48.45
2024-02-29T04:44:45.562Z,48.83
2024-02-29T04:47:12.521Z,48.78
2024-02-29T04:49:39.481Z,48.36
2024-02-29T04:52:06.759Z,48.60
2024-02-29T04:54:33.943Z,48.63
2024-02-29T04:57:00.877Z,48.37
2024-02-29T04:59:27.849Z,48.16
2024-02-29T05:01:54.964Z,48.03
2024-02-29T05:04:22.065Z,47.31
2024-02-29T05:06:49.250Z,47.10
2024-02-29T05:09:16.340Z,46.58
2024-02-29T05:11:43.466Z,46.68
2024-02-29T05:14:10.394Z,46.73
2024-02-29T05:16:37.414Z,45.67
2024-02-29T05:19:04.578Z,45.78
2024-02-29T05:21:31.878Z,46.57
2024-02-29T05:23:59.050Z,45.65
2024-02-29T05:26:26.103Z,45.70
2024-02-29T05:28:53.050Z,45.69
2024-02-29T05:31:20.155Z,45.57
2024-02-29T05:33:47.196Z,45.71
2024-02-29T05:36:15.840Z,45.17
2024-02-29T05:38:42.868Z,45.44
2024-02-29T05:41:09.974Z,45.01
2024-02-29T05:43:37.019Z,44.99
2024-02-29T05:46:04.154Z,44.64
2024-02-29T05:48:31.093Z,44.69
2024-02-29T05:50:58.097Z,44.50
2024-02-29T05:53:25.088Z,44.11
2024-02-29T05:55:52.204Z,44.23
2024-02-29T05:58:19.385Z,44.12
2024-02-29T06:00:47.433Z,43.74
2024-02-29T06:03:14.520Z,43.56
2024-02-29T06:05:41.597Z,44.54
2024-02-29T06:08:08.623Z,43.94
2024-02-29T06:10:35.633Z,44.24
2024-02-29T06:13:02.782Z,44.27
2024-02-29T06:15:29.785Z,43.80
2024-02-29T06:17:56.926Z,44.57
2024-02-29T06:20:24.009Z,44.26
2024-02-29T06:22:50.987Z,43.94
2024-02-29T06:25:18.085Z,44.20
2024-02-29T06:27:46.202Z,43.78
2024-02-29T06:30:13.703Z,43.98
2024-02-29T06:32:40.808Z,43.73
2024-02-29T06:35:08.682Z,43.69
2024-02-29T06:37:35.683Z,43.10
2024-02-29T06:40:02.858Z,43.05
2024-02-29T06:42:29.944Z,43.07
2024-02-29T06:44:56.976Z,43.59
2024-02-29T06:47:23.931Z,42.77
2024-02-29T06:49:50.929Z,43.04
2024-02-29T06:52:17.959Z,43.00
2024-02-29T06:54:45.064Z,42.27
2024-02-29T06:57:13.268Z,42.33
2024-02-29T06:59:40.820Z,42.22
2024-02-29T07:02:07.850Z,42.27
2024-02-29T07:04:34.954Z,41.57
2024-02-29T07:07:02.049Z,41.75
2024-02-29T07:09:29.053Z,41.38
2024-02-29T07:11:56.044Z,41.05
2024-02-29T07:14:23.053Z,41.03
2024-02-29T07:16:50.113Z,40.60
2024-02-29T07:19:17.168Z,39.95
2024-02-29T07:21:44.601Z,39.79
2024-02-29T07:24:11.777Z,39.72
2024-02-29T07:26:42.244Z,39.97
2024-02-29T07:29:11.638Z,40.04
2024-02-29T07:31:42.281Z,39.88
2024-02-29T07:34:09.274Z,38.83
2024-02-29T07:36:36.326Z,38.96
2024-02-29T07:39:06.093Z,39.14
2024-02-29T07:41:33.056Z,38.98
2024-02-29T07:44:00.116Z,38.68
2024-02-29T07:46:27.151Z,39.08
2024-02-29T07:48:54.148Z,39.31
2024-02-29T07:51:21.107Z,38.95
2024-02-29T07:53:48.125Z,38.49
2024-02-29T07:56:16.188Z,39.51
2024-02-29T07:58:43.110Z,39.26
2024-02-29T08:01:10.195Z,38.99
2024-02-29T08:03:37.540Z,38.38
2024-02-29T08:06:04.666Z,39.18
2024-02-29T08:08:31.797Z,38.50
2024-02-29T08:10:58.838Z,38.77
2024-02-29T08:13:25.869Z,39.25
2024-02-29T08:15:53.053Z,38.78
2024-02-29T08:18:20.261Z,38.83
2024-02-29T08:20:47.327Z,38.50
2024-02-29T08:23:15.299Z,38.36
2024-02-29T08:25:44.086Z,38.54
2024-02-29T08:28:11.154Z,39.07
2024-02-29T08:30:38.365Z,38.13
2024-02-29T08:33:05.566Z,38.56
2024-02-29T08:35:35.146Z,38.56
2024-02-29T08:38:08.047Z,38.18
2024-02-29T08:40:37.688Z,38.59
2024-02-29T08:43:04.853Z,38.46
2024-02-29T08:45:31.888Z,39.14
2024-02-29T08:47:58.906Z,38.15
2024-02-29T08:50:25.908Z,37.82
2024-02-29T08:52:53.063Z,38.19
2024-02-29T08:55:20.084Z,38.42
2024-02-29T08:57:47.204Z,37.57
2024-02-29T09:00:17.543Z,38.33
2024-02-29T09:02:44.557Z,38.22
2024-02-29T09:05:11.674Z,38.30
2024-02-29T09:07:38.787Z,37.95
2024-02-29T09:10:06.641Z,37.55
2024-02-29T09:12:33.786Z,37.13
2024-02-29T09:15:00.834Z,36.96
2024-02-29T09:17:28.043Z,36.76
2024-02-29T09:19:55.018Z,36.92
2024-02-29T09:22:21.968Z,37.25
2024-02-29T09:24:49.278Z,37.22
2024-02-29T09:27:16.928Z,37.34
2024-02-29T09:29:43.888Z,37.45
2024-02-29T09:32:10.927Z,36.92
2024-02-29T09:34:39.821Z,37.80
2024-02-29T09:37:08.663Z,36.76
2024-02-29T09:39:35.814Z,36.03
2024-02-29T09:44:33.825Z,38.26
2024-02-29T09:47:00.762Z,37.51
2024-02-29T09:49:27.951Z,37.30
2024-02-29T09:51:55.027Z,36.50
2024-02-29T09:54:23.272Z,37.12
2024-02-29T09:56:50.272Z,36.72
2024-02-29T09:59:17.913Z,37.11
2024-02-29T10:01:49.147Z,37.07
2024-02-29T10:04:16.588Z,37.88
2024-02-29T10:06:43.675Z,37.68
2024-02-29T10:09:11.184Z,36.94
2024-02-29T10:11:41.965Z,37.27
2024-02-29T10:14:25.712Z,37.42
2024-02-29T10:16:54.470Z,37.41
2024-02-29T10:19:22.789Z,36.89
2024-02-29T10:21:52.224Z,38.37
2024-02-29T10:24:23.162Z,37.78
2024-02-29T10:26:50.556Z,38.14
2024-02-29T10:29:17.551Z,38.20
2024-02-29T10:31:44.770Z,39.60
2024-02-29T10:34:12.849Z,39.00
2024-02-29T10:36:40.645Z,39.84
2024-02-29T10:39:07.755Z,39.28
2024-02-29T10:41:37.784Z,38.96
2024-02-29T10:44:08.306Z,38.82
2024-02-29T10:46:37.977Z,38.26
2024-02-29T10:49:10.406Z,38.04
2024-02-29T10:51:51.798Z,37.59
2024-02-29T10:54:24.913Z,37.24
2024-02-29T10:56:56.850Z,37.13
2024-02-29T10:59:26.665Z,37.25
2024-02-29T11:01:54.852Z,37.63
2024-02-29T11:04:22.020Z,37.28
2024-02-29T11:06:50.219Z,37.26
2024-02-29T11:09:25.419Z,37.68
2024-02-29T11:12:09.340Z,38.59
2024-02-29T11:14:36.925Z,38.14
2024-02-29T11:17:05.475Z,38.15
2024-02-29T11:19:42.321Z,38.23
2024-02-29T11:22:17.678Z,37.61
2024-02-29T11:24:45.495Z,37.68
2024-02-29T11:27:13.737Z,38.43
2024-02-29T11:29:40.839Z,38.19
2024-02-29T11:32:09.091Z,37.68
2024-02-29T11:34:37.766Z,38.30
2024-02-29T11:37:06.678Z,38.49
2024-02-29T11:39:33.706Z,38.27
2024-02-29T11:42:03.944Z,37.93
2024-02-29T11:44:32.080Z,37.81
2024-02-29T11:46:59.408Z,38.03
2024-02-29T11:49:27.369Z,37.85
2024-02-29T11:51:56.521Z,37.98
2024-02-29T11:54:26.759Z,37.95
2024-02-29T11:56:55.604Z,38.30
2024-02-29T11:59:24.368Z,37.58
2024-02-29T12:01:51.628Z,38.15
2024-02-29T12:04:18.803Z,38.54
2024-02-29T12:06:46.669Z,38.47
2024-02-29T12:09:14.053Z,38.31
2024-02-29T12:11:42.781Z,38.04
2024-02-29T12:14:10.581Z,37.95
2024-02-29T12:16:39.504Z,38.14
2024-02-29T12:19:07.555Z,38.06
2024-02-29T12:21:38.186Z,38.30
2024-02-29T12:24:10.267Z,38.38
2024-02-29T12:26:37.628Z,37.90
2024-02-29T12:29:07.356Z,38.37
2024-02-29T12:31:35.275Z,38.06
2024-02-29T12:34:03.037Z,38.20
2024-02-29T12:36:30.603Z,38.61
2024-02-29T12:38:57.858Z,38.48
2024-02-29T12:41:25.640Z,38.55
2024-02-29T12:43:54.240Z,37.78
2024-02-29T12:46:21.530Z,38.93
2024-02-29T12:48:48.661Z,38.86
2024-02-29T12:51:15.998Z,39.39
2024-02-29T12:53:42.969Z,39.37
2024-02-29T12:56:10.328Z,39.93
2024-02-29T12:58:37.288Z,40.37
2024-02-29T13:01:04.578Z,40.65
2024-02-29T13:03:31.646Z,40.30
2024-02-29T13:05:58.792Z,40.78
2024-02-29T13:08:25.817Z,40.20
2024-02-29T13:10:52.840Z,40.19
2024-02-29T13:13:19.843Z,40.74
2024-02-29T13:15:47.085Z,41.01
2024-02-29T13:18:14.108Z,41.04
2024-02-29T13:20:41.224Z,41.49
2024-02-29T13:23:11.405Z,41.40
2024-02-29T13:25:38.473Z,41.44
2024-02-29T13:28:05.795Z,41.85
2024-02-29T13:30:32.920Z,42.62
2024-02-29T13:32:59.911Z,42.50
2024-02-29T13:35:27.028Z,42.34
2024-02-29T13:37:54.075Z,42.20
2024-02-29T13:40:21.169Z,41.91
2024-02-29T13:42:48.964Z,42.57
2024-02-29T13:45:16.155Z,42.55
2024-02-29T13:47:52.103Z,42.56
2024-02-29T13:50:19.952Z,42.49
2024-02-29T13:52:47.016Z,42.10
2024-02-29T13:55:14.694Z,42.15
2024-02-29T13:57:44.504Z,42.73
2024-02-29T14:00:13.338Z,42.86
2024-02-29T14:02:43.466Z,42.59
2024-02-29T14:05:13.334Z,42.97
2024-02-29T14:07:40.369Z,43.32
2024-02-29T14:10:10.611Z,43.28
2024-02-29T14:12:39.145Z,43.38
2024-02-29T14:15:06.970Z,43.87
2024-02-29T14:17:37.383Z,43.81
2024-02-29T14:20:07.015Z,43.37
2024-02-29T14:22:35.095Z,44.15
2024-02-29T14:25:04.806Z,44.52
2024-02-29T14:27:32.164Z,43.99
2024-02-29T14:29:59.069Z,44.55
2024-02-29T14:32:26.022Z,44.59
2024-02-29T14:34:52.960Z,44.67
2024-02-29T14:37:22.754Z,44.09
2024-02-29T14:39:50.549Z,44.63
2024-02-29T14:42:18.476Z,45.01
2024-02-29T14:44:48.919Z,45.36
2024-02-29T14:47:20.694Z,45.50
2024-02-29T14:49:50.483Z,45.95
2024-02-29T14:52:18.679Z,46.04
2024-02-29T14:54:45.800Z,47.04
2024-02-29T14:57:15.592Z,46.45
2024-02-29T14:59:43.017Z,47.02
2024-02-29T15:02:13.588Z,47.12
2024-02-29T15:04:40.626Z,47.13
2024-02-29T15:07:08.403Z,47.29
2024-02-29T15:09:37.058Z,47.56
2024-02-29T15:12:04.620Z,47.53
2024-02-29T15:14:31.702Z,48.00
2024-02-29T15:16:58.679Z,48.50
2024-02-29T15:19:34.905Z,48.34
2024-02-29T15:22:03.643Z,48.45
2024-02-29T15:24:34.449Z,48.00
2024-02-29T15:27:04.666Z,47.98
2024-02-29T15:29:36.754Z,47.57
2024-02-29T15:32:04.287Z,48.18
2024-02-29T15:34:32.598Z,48.50
2024-02-29T15:36:59.678Z,48.08
2024-02-29T15:39:26.760Z,48.27
2024-02-29T15:41:54.974Z,48.37
2024-02-29T15:44:22.017Z,48.54
2024-02-29T15:46:49.497Z,48.79
2024-02-29T15:49:16.539Z,49.56
2024-02-29T15:51:43.695Z,49.25
2024-02-29T15:54:10.800Z,49.35
2024-02-29T15:56:37.934Z,49.77
2024-02-29T15:59:05.330Z,50.10
2024-02-29T16:01:32.716Z,49.77
2024-02-29T16:04:00.172Z,49.77
2024-02-29T16:06:27.249Z,49.88
2024-02-29T16:08:54.308Z,50.15
2024-02-29T16:11:22.044Z,49.97
2024-02-29T16:13:53.975Z,51.01
2024-02-29T16:16:21.405Z,50.12
2024-02-29T16:18:48.403Z,50.81
2024-02-29T16:21:15.530Z,50.80
2024-02-29T16:23:42.627Z,50.95
2024-02-29T16:26:09.684Z,50.73
2024-02-29T16:28:38.738Z,51.00
2024-02-29T16:31:06.212Z,51.39
2024-02-29T16:33:34.951Z,51.97
2024-02-29T16:36:02.771Z,51.85
2024-02-29T16:38:30.149Z,51.75
2024-02-29T16:40:57.272Z,51.73
2024-02-29T16:43:24.247Z,51.52
2024-02-29T16:45:52.526Z,52.11
2024-02-29T16:48:23.594Z,52.24
2024-02-29T16:50:50.969Z,52.13
2024-02-29T16:53:18.038Z,51.80
2024-02-29T16:55:45.021Z,52.09
2024-02-29T16:58:13.063Z,52.52
2024-02-29T17:00:40.197Z,52.59
2024-02-29T17:03:07.367Z,52.59
2024-02-29T17:05:34.414Z,52.34
2024-02-29T17:08:01.812Z,52.44
2024-02-29T17:10:29.143Z,52.25
2024-02-29T17:12:56.197Z,52.39
2024-02-29T17:15:23.156Z,52.19
2024-02-29T17:17:50.204Z,52.07
2024-02-29T17:20:17.341Z,52.12
2024-02-29T17:22:44.446Z,52.05
2024-02-29T17:25:11.504Z,52.46
2024-02-29T17:27:38.690Z,51.76
2024-02-29T17:30:06.261Z,52.34
2024-02-29T17:32:33.392Z,52.46
2024-02-29T17:35:00.412Z,52.12
2024-02-29T17:37:30.285Z,52.11
2024-02-29T17:39:57.930Z,52.47
2024-02-29T17:42:24.959Z,52.66
2024-02-29T17:44:52.366Z,52.03
2024-02-29T17:47:19.326Z,52.98
2024-02-29T17:49:46.344Z,52.82
2024-02-29T17:52:13.296Z,52.74
2024-02-29T17:54:40.364Z,53.18
2024-02-29T17:57:07.409Z,53.28
2024-02-29T17:59:34.441Z,52.99
2024-02-29T18:02:01.924Z,53.29
2024-02-29T18:04:29.574Z,52.92
2024-02-29T18:06:56.636Z,53.01
2024-02-29T18:09:23.686Z,52.93
2024-02-29T18:11:50.842Z,53.45
2024-02-29T18:14:17.802Z,53.53
2024-02-29T18:16:44.833Z,53.05
2024-02-29T18:19:12.096Z,53.03
2024-02-29T18:21:42.875Z,53.58
2024-02-29T18:24:10.360Z,53.09
2024-02-29T18:26:38.139Z,53.17
2024-02-29T18:29:05.285Z,53.21
2024-02-29T18:31:33.242Z,53.55
2024-02-29T18:34:01.639Z,53.44
2024-02-29T18:36:28.793Z,53.30
2024-02-29T18:38:56.384Z,53.75
2024-02-29T18:41:23.418Z,53.20
2024-02-29T18:43:52.101Z,53.33
2024-02-29T18:46:19.211Z,53.76
2024-02-29T18:48:46.315Z,54.09
2024-02-29T18:51:13.291Z,54.07
2024-02-29T18:53:40.268Z,54.65
2024-02-29T18:56:07.531Z,54.27
2024-02-29T18:58:34.539Z,54.70
2024-02-29T19:01:01.603Z,54.99
2024-02-29T19:03:28.600Z,54.54
2024-02-29T19:05:55.604Z,54.43
2024-02-29T19:08:22.631Z,54.60
2024-02-29T19:10:49.611Z,55.32
2024-02-29T19:13:17.459Z,55.47
2024-02-29T19:15:44.567Z,55.45
2024-02-29T19:18:11.578Z,55.24
2024-02-29T19:20:39.802Z,55.63
2024-02-29T19:23:06.791Z,55.58
2024-02-29T19:25:33.872Z,55.97
2024-02-29T19:28:01.011Z,55.79
2024-02-29T19:30:28.291Z,56.64
2024-02-29T19:32:56.662Z,56.72
2024-02-29T19:35:23.748Z,56.17
2024-02-29T19:37:50.722Z,57.23
2024-02-29T19:40:18.796Z,56.77
2024-02-29T19:42:45.948Z,56.02
2024-02-29T19:45:13.186Z,56.72
2024-02-29T19:47:41.879Z,57.64
2024-02-29T19:50:11.804Z,57.46
2024-02-29T19:52:38.948Z,57.55
2024-02-29T19:55:06.686Z,58.21
2024-02-29T19:57:33.998Z,57.70
2024-02-29T20:00:01.022Z,57.50
2024-02-29T20:02:28.083Z,58.07
2024-02-29T20:04:55.261Z,58.89
2024-02-29T20:07:22.314Z,58.18
2024-02-29T20:09:49.999Z,58.48
2024-02-29T20:12:17.183Z,58.88
2024-02-29T20:14:44.948Z,58.56
2024-02-29T20:17:12.012Z,59.29
2024-02-29T20:19:39.173Z,58.08
2024-02-29T20:22:06.272Z,58.79
2024-02-29T20:24:33.278Z,58.20
2024-02-29T20:27:00.295Z,58.97
2024-02-29T20:29:27.385Z,59.40
2024-02-29T20:31:54.392Z,59.27
2024-02-29T20:34:22.410Z,58.83
2024-02-29T20:36:49.602Z,59.10
2024-02-29T20:39:16.621Z,59.51
2024-02-29T20:41:43.684Z,58.86
2024-02-29T20:44:10.696Z,59.70
2024-02-29T20:46:37.921Z,59.69
2024-02-29T20:49:05.636Z,59.91
2024-02-29T20:51:32.657Z,60.14
2024-02-29T20:54:00.175Z,59.99
2024-02-29T20:56:27.417Z,60.13
2024-02-29T20:58:54.399Z,59.54
2024-02-29T21:01:21.433Z,59.84
2024-02-29T21:03:48.535Z,60.90
2024-02-29T21:06:15.553Z,60.55
2024-02-29T21:08:42.801Z,60.21
2024-02-29T21:11:09.929Z,60.78
2024-02-29T21:13:39.869Z,60.44
2024-02-29T21:16:07.215Z,60.33
2024-02-29T21:18:34.165Z,60.42
2024-02-29T21:21:01.097Z,60.96
2024-02-29T21:23:28.149Z,60.74
2024-02-29T21:25:55.092Z,60.35
2024-02-29T21:28:22.224Z,61.35
2024-02-29T21:30:49.447Z,60.59
2024-02-29T21:33:16.867Z,61.22
2024-02-29T21:35:44.389Z,61.05
2024-02-29T21:38:11.412Z,61.19
2024-02-29T21:40:38.910Z,60.71
2024-02-29T21:43:06.075Z,61.55
2024-02-29T21:45:33.135Z,62.04
2024-02-29T21:48:00.224Z,61.39
2024-02-29T21:50:27.258Z,62.17
2024-02-29T21:52:54.232Z,61.96
2024-02-29T21:55:22.410Z,62.01
2024-02-29T21:57:49.606Z,62.17
2024-02-29T22:00:16.895Z,62.03
2024-02-29T22:02:43.945Z,62.87
2024-02-29T22:05:11.096Z,63.01
2024-02-29T22:07:38.154Z,62.57
2024-02-29T22:10:05.623Z,62.19
2024-02-29T22:12:32.712Z,62.20
2024-02-29T22:14:59.690Z,62.84
2024-02-29T22:17:26.694Z,62.47
2024-02-29T22:19:53.678Z,62.70
2024-02-29T22:22:20.704Z,62.82
2024-02-29T22:24:47.696Z,63.48
2024-02-29T22:27:14.715Z,62.66
2024-02-29T22:29:41.710Z,63.09
2024-02-29T22:32:09.318Z,63.01
2024-02-29T22:34:36.280Z,63.02
2024-02-29T22:37:03.332Z,63.73
2024-02-29T22:39:30.353Z,63.63
2024-02-29T22:42:01.787Z,63.72
2024-02-29T22:44:30.347Z,64.14
2024-02-29T22:46:57.375Z,63.88
2024-02-29T22:49:24.890Z,64.45
2024-02-29T22:51:52.252Z,64.40
2024-02-29T22:54:19.475Z,64.67
2024-02-29T22:56:46.518Z,64.02
2024-02-29T22:59:13.640Z,64.71
2024-02-29T23:01:40.813Z,64.91
2024-02-29T23:04:07.871Z,64.30
2024-02-29T23:06:36.116Z,64.77
2024-02-29T23:09:03.497Z,64.18
2024-02-29T23:11:30.547Z,64.52
2024-02-29T23:13:57.618Z,64.52
2024-02-29T23:16:24.789Z,64.96
2024-02-29T23:18:51.900Z,64.54
2024-02-29T23:21:18.873Z,64.57
2024-02-29T23:23:45.917Z,64.91
2024-02-29T23:26:12.893Z,64.67
2024-02-29T23:28:39.975Z,65.04
2024-02-29T23:31:06.911Z,64.68
2024-02-29T23:33:33.944Z,63.98
2024-02-29T23:36:00.938Z,64.66
2024-02-29T23:38:28.025Z,64.64
2024-02-29T23:40:54.993Z,64.14
2024-02-29T23:43:22.138Z,63.75
2024-02-29T23:45:49.186Z,63.60
2024-02-29T23:48:16.409Z,63.95
2024-02-29T23:50:43.440Z,63.24
2024-02-29T23:53:10.490Z,63.47
2024-02-29T23:55:37.490Z,62.82
2024-02-29T23:58:04.764Z,63.38
